sensor_id;sensor_type;location;lat;lon;timestamp;P1;durP1;ratioP1;P2;durP2;ratioP2
5702;SDS011;2876;51.738;10.050;2024-02-14T00:04:28;5.40;;;2.73;;
5702;SDS011;2876;51.738;10.050;2024-02-14T00:10:30;3.20;;;2.00;;
5702;SDS011;2876;51.738;10.050;2024-02-14T00:16:32;2.40;;;2.00;;
5702;SDS011;2876;51.738;10.050;2024-02-14T00:22:35;2.20;;;1.93;;
5702;SDS011;2876;51.738;10.050;2024-02-14T00:28:37;6.73;;;2.43;;
5702;SDS011;2876;51.738;10.050;2024-02-14T00:34:39;5.90;;;2.30;;
5702;SDS011;2876;51.738;10.050;2024-02-14T00:40:41;4.70;;;2.40;;
5702;SDS011;2876;51.738;10.050;2024-02-14T00:46:43;2.60;;;2.10;;
5702;SDS011;2876;51.738;10.050;2024-02-14T00:52:45;3.93;;;2.33;;
5702;SDS011;2876;51.738;10.050;2024-02-14T00:58:47;6.30;;;2.87;;
5702;SDS011;2876;51.738;10.050;2024-02-14T01:04:49;2.60;;;2.27;;
5702;SDS011;2876;51.738;10.050;2024-02-14T01:10:51;2.47;;;2.23;;
5702;SDS011;2876;51.738;10.050;2024-02-14T01:16:53;4.40;;;2.60;;
5702;SDS011;2876;51.738;10.050;2024-02-14T01:22:55;8.80;;;3.50;;
5702;SDS011;2876;51.738;10.050;2024-02-14T01:28:57;4.03;;;2.70;;
5702;SDS011;2876;51.738;10.050;2024-02-14T01:35:02;4.30;;;2.40;;
5702;SDS011;2876;51.738;10.050;2024-02-14T01:41:05;4.10;;;2.40;;
5702;SDS011;2876;51.738;10.050;2024-02-14T01:47:07;7.00;;;3.20;;
5702;SDS011;2876;51.738;10.050;2024-02-14T01:53:10;3.00;;;2.70;;
5702;SDS011;2876;51.738;10.050;2024-02-14T01:59:14;3.47;;;2.83;;
5702;SDS011;2876;51.738;10.050;2024-02-14T02:05:18;5.43;;;2.83;;
5702;SDS011;2876;51.738;10.050;2024-02-14T02:11:20;5.80;;;2.60;;
5702;SDS011;2876;51.738;10.050;2024-02-14T02:17:23;3.50;;;2.73;;
5702;SDS011;2876;51.738;10.050;2024-02-14T02:23:25;6.87;;;2.83;;
5702;SDS011;2876;51.738;10.050;2024-02-14T02:29:27;7.17;;;3.10;;
5702;SDS011;2876;51.738;10.050;2024-02-14T02:35:29;6.63;;;2.87;;
5702;SDS011;2876;51.738;10.050;2024-02-14T02:41:32;6.03;;;3.40;;
5702;SDS011;2876;51.738;10.050;2024-02-14T02:47:34;3.33;;;2.67;;
5702;SDS011;2876;51.738;10.050;2024-02-14T02:53:36;4.90;;;2.67;;
5702;SDS011;2876;51.738;10.050;2024-02-14T02:59:39;4.67;;;2.73;;
5702;SDS011;2876;51.738;10.050;2024-02-14T03:05:44;6.53;;;2.87;;
5702;SDS011;2876;51.738;10.050;2024-02-14T03:11:47;5.47;;;2.20;;
5702;SDS011;2876;51.738;10.050;2024-02-14T03:17:49;4.97;;;2.57;;
5702;SDS011;2876;51.738;10.050;2024-02-14T03:23:51;5.00;;;2.17;;
5702;SDS011;2876;51.738;10.050;2024-02-14T03:29:55;3.13;;;2.17;;
5702;SDS011;2876;51.738;10.050;2024-02-14T03:36:00;3.37;;;2.13;;
5702;SDS011;2876;51.738;10.050;2024-02-14T03:42:02;3.07;;;2.30;;
5702;SDS011;2876;51.738;10.050;2024-02-14T03:48:08;2.33;;;1.80;;
5702;SDS011;2876;51.738;10.050;2024-02-14T03:54:13;8.20;;;2.20;;
5702;SDS011;2876;51.738;10.050;2024-02-14T04:00:16;5.40;;;2.20;;
5702;SDS011;2876;51.738;10.050;2024-02-14T04:06:19;5.27;;;1.93;;
5702;SDS011;2876;51.738;10.050;2024-02-14T04:12:21;5.57;;;2.10;;
5702;SDS011;2876;51.738;10.050;2024-02-14T04:18:23;5.47;;;1.60;;
5702;SDS011;2876;51.738;10.050;2024-02-14T04:24:25;4.10;;;2.00;;
5702;SDS011;2876;51.738;10.050;2024-02-14T04:30:27;6.00;;;1.90;;
5702;SDS011;2876;51.738;10.050;2024-02-14T04:36:29;1.87;;;1.40;;
5702;SDS011;2876;51.738;10.050;2024-02-14T04:42:31;2.23;;;1.80;;
5702;SDS011;2876;51.738;10.050;2024-02-14T04:48:37;1.87;;;1.70;;
5702;SDS011;2876;51.738;10.050;2024-02-14T04:54:39;5.07;;;1.70;;
5702;SDS011;2876;51.738;10.050;2024-02-14T05:00:41;2.23;;;1.83;;
5702;SDS011;2876;51.738;10.050;2024-02-14T05:06:43;4.27;;;1.67;;
5702;SDS011;2876;51.738;10.050;2024-02-14T05:12:46;5.53;;;1.83;;
5702;SDS011;2876;51.738;10.050;2024-02-14T05:18:48;2.40;;;2.03;;
5702;SDS011;2876;51.738;10.050;2024-02-14T05:24:50;9.77;;;2.60;;
5702;SDS011;2876;51.738;10.050;2024-02-14T05:30:52;4.90;;;1.90;;
5702;SDS011;2876;51.738;10.050;2024-02-14T05:36:54;8.40;;;2.10;;
5702;SDS011;2876;51.738;10.050;2024-02-14T05:42:56;4.60;;;1.70;;
5702;SDS011;2876;51.738;10.050;2024-02-14T05:48:58;5.03;;;1.80;;
5702;SDS011;2876;51.738;10.050;2024-02-14T05:55:00;7.53;;;1.90;;
5702;SDS011;2876;51.738;10.050;2024-02-14T06:01:02;4.17;;;1.67;;
5702;SDS011;2876;51.738;10.050;2024-02-14T06:07:04;1.80;;;1.43;;
5702;SDS011;2876;51.738;10.050;2024-02-14T06:13:08;2.40;;;1.73;;
5702;SDS011;2876;51.738;10.050;2024-02-14T06:19:10;5.67;;;1.93;;
5702;SDS011;2876;51.738;10.050;2024-02-14T06:25:13;3.93;;;2.03;;
5702;SDS011;2876;51.738;10.050;2024-02-14T06:31:15;4.97;;;2.00;;
5702;SDS011;2876;51.738;10.050;2024-02-14T06:37:17;3.93;;;1.97;;
5702;SDS011;2876;51.738;10.050;2024-02-14T06:43:19;6.05;;;2.35;;
5702;SDS011;2876;51.738;10.050;2024-02-14T06:49:21;3.10;;;1.90;;
5702;SDS011;2876;51.738;10.050;2024-02-14T06:55:24;5.63;;;1.87;;
5702;SDS011;2876;51.738;10.050;2024-02-14T07:01:27;4.03;;;1.97;;
5702;SDS011;2876;51.738;10.050;2024-02-14T07:07:30;3.93;;;2.17;;
5702;SDS011;2876;51.738;10.050;2024-02-14T07:13:32;2.10;;;1.77;;
5702;SDS011;2876;51.738;10.050;2024-02-14T07:19:34;3.80;;;2.07;;
5702;SDS011;2876;51.738;10.050;2024-02-14T07:25:36;6.43;;;2.40;;
5702;SDS011;2876;51.738;10.050;2024-02-14T07:31:38;2.43;;;1.90;;
5702;SDS011;2876;51.738;10.050;2024-02-14T07:37:40;3.80;;;2.20;;
5702;SDS011;2876;51.738;10.050;2024-02-14T07:43:43;3.73;;;2.23;;
5702;SDS011;2876;51.738;10.050;2024-02-14T07:49:45;7.73;;;2.60;;
5702;SDS011;2876;51.738;10.050;2024-02-14T07:55:47;7.37;;;2.43;;
5702;SDS011;2876;51.738;10.050;2024-02-14T08:01:50;7.13;;;3.30;;
5702;SDS011;2876;51.738;10.050;2024-02-14T08:07:53;5.67;;;3.03;;
5702;SDS011;2876;51.738;10.050;2024-02-14T08:13:55;2.40;;;2.20;;
5702;SDS011;2876;51.738;10.050;2024-02-14T08:19:57;6.17;;;3.57;;
5702;SDS011;2876;51.738;10.050;2024-02-14T08:25:59;2.40;;;2.20;;
5702;SDS011;2876;51.738;10.050;2024-02-14T08:32:01;3.80;;;2.10;;
5702;SDS011;2876;51.738;10.050;2024-02-14T08:38:04;8.67;;;2.90;;
5702;SDS011;2876;51.738;10.050;2024-02-14T08:44:07;4.20;;;2.63;;
5702;SDS011;2876;51.738;10.050;2024-02-14T08:50:09;3.67;;;2.40;;
5702;SDS011;2876;51.738;10.050;2024-02-14T08:56:12;4.40;;;2.20;;
5702;SDS011;2876;51.738;10.050;2024-02-14T09:02:16;2.60;;;2.13;;
5702;SDS011;2876;51.738;10.050;2024-02-14T09:08:18;9.07;;;2.83;;
5702;SDS011;2876;51.738;10.050;2024-02-14T09:14:21;5.77;;;2.60;;
5702;SDS011;2876;51.738;10.050;2024-02-14T09:20:26;3.20;;;2.20;;
5702;SDS011;2876;51.738;10.050;2024-02-14T09:26:28;3.83;;;2.50;;
5702;SDS011;2876;51.738;10.050;2024-02-14T09:32:30;4.73;;;2.13;;
5702;SDS011;2876;51.738;10.050;2024-02-14T09:38:33;2.80;;;2.13;;
5702;SDS011;2876;51.738;10.050;2024-02-14T09:44:35;2.50;;;2.20;;
5702;SDS011;2876;51.738;10.050;2024-02-14T09:50:39;3.27;;;2.63;;
5702;SDS011;2876;51.738;10.050;2024-02-14T09:56:42;2.77;;;2.17;;
5702;SDS011;2876;51.738;10.050;2024-02-14T10:02:55;6.20;;;2.27;;
5702;SDS011;2876;51.738;10.050;2024-02-14T10:08:57;4.13;;;2.40;;
5702;SDS011;2876;51.738;10.050;2024-02-14T10:15:05;2.43;;;2.23;;
5702;SDS011;2876;51.738;10.050;2024-02-14T10:21:08;2.80;;;2.40;;
5702;SDS011;2876;51.738;10.050;2024-02-14T10:27:16;7.97;;;2.70;;
5702;SDS011;2876;51.738;10.050;2024-02-14T10:33:18;2.80;;;2.27;;
5702;SDS011;2876;51.738;10.050;2024-02-14T10:39:28;4.70;;;2.20;;
5702;SDS011;2876;51.738;10.050;2024-02-14T10:45:32;4.60;;;2.50;;
5702;SDS011;2876;51.738;10.050;2024-02-14T10:51:35;3.80;;;2.60;;
5702;SDS011;2876;51.738;10.050;2024-02-14T10:57:39;2.33;;;2.10;;
5702;SDS011;2876;51.738;10.050;2024-02-14T11:03:42;9.87;;;2.80;;
5702;SDS011;2876;51.738;10.050;2024-02-14T11:09:46;8.23;;;2.23;;
5702;SDS011;2876;51.738;10.050;2024-02-14T11:15:51;2.65;;;2.30;;
5702;SDS011;2876;51.738;10.050;2024-02-14T11:21:55;4.50;;;2.40;;
5702;SDS011;2876;51.738;10.050;2024-02-14T11:27:58;7.40;;;2.73;;
5702;SDS011;2876;51.738;10.050;2024-02-14T11:34:04;3.97;;;2.87;;
5702;SDS011;2876;51.738;10.050;2024-02-14T11:40:07;3.47;;;2.50;;
5702;SDS011;2876;51.738;10.050;2024-02-14T11:46:09;3.13;;;2.70;;
5702;SDS011;2876;51.738;10.050;2024-02-14T11:52:11;6.50;;;2.60;;
5702;SDS011;2876;51.738;10.050;2024-02-14T11:58:16;4.60;;;2.70;;
5702;SDS011;2876;51.738;10.050;2024-02-14T12:04:19;2.57;;;2.30;;
5702;SDS011;2876;51.738;10.050;2024-02-14T12:10:21;2.93;;;2.43;;
5702;SDS011;2876;51.738;10.050;2024-02-14T12:16:23;3.73;;;2.40;;
5702;SDS011;2876;51.738;10.050;2024-02-14T12:22:26;2.83;;;2.60;;
5702;SDS011;2876;51.738;10.050;2024-02-14T12:28:28;6.33;;;2.43;;
5702;SDS011;2876;51.738;10.050;2024-02-14T12:34:34;4.10;;;2.47;;
5702;SDS011;2876;51.738;10.050;2024-02-14T12:40:37;5.47;;;2.67;;
5702;SDS011;2876;51.738;10.050;2024-02-14T12:46:39;4.60;;;2.87;;
5702;SDS011;2876;51.738;10.050;2024-02-14T12:52:41;3.03;;;2.73;;
5702;SDS011;2876;51.738;10.050;2024-02-14T12:58:43;4.40;;;3.23;;
5702;SDS011;2876;51.738;10.050;2024-02-14T13:04:47;4.77;;;2.37;;
5702;SDS011;2876;51.738;10.050;2024-02-14T13:10:50;2.80;;;2.13;;
5702;SDS011;2876;51.738;10.050;2024-02-14T13:16:52;4.03;;;2.80;;
5702;SDS011;2876;51.738;10.050;2024-02-14T13:22:54;3.53;;;2.33;;
5702;SDS011;2876;51.738;10.050;2024-02-14T13:28:56;4.90;;;2.73;;
5702;SDS011;2876;51.738;10.050;2024-02-14T13:34:58;3.77;;;2.23;;
5702;SDS011;2876;51.738;10.050;2024-02-14T13:41:00;3.53;;;2.30;;
5702;SDS011;2876;51.738;10.050;2024-02-14T13:47:02;2.20;;;2.00;;
5702;SDS011;2876;51.738;10.050;2024-02-14T13:53:06;4.60;;;2.63;;
5702;SDS011;2876;51.738;10.050;2024-02-14T13:59:08;6.27;;;2.83;;
5702;SDS011;2876;51.738;10.050;2024-02-14T14:05:12;4.00;;;2.60;;
5702;SDS011;2876;51.738;10.050;2024-02-14T14:11:18;4.27;;;2.47;;
5702;SDS011;2876;51.738;10.050;2024-02-14T14:17:21;4.00;;;2.97;;
5702;SDS011;2876;51.738;10.050;2024-02-14T14:23:23;3.93;;;2.70;;
5702;SDS011;2876;51.738;10.050;2024-02-14T14:29:25;4.30;;;2.97;;
5702;SDS011;2876;51.738;10.050;2024-02-14T14:35:29;2.73;;;2.10;;
5702;SDS011;2876;51.738;10.050;2024-02-14T14:41:35;6.23;;;2.70;;
5702;SDS011;2876;51.738;10.050;2024-02-14T14:47:37;4.17;;;2.80;;
5702;SDS011;2876;51.738;10.050;2024-02-14T14:53:39;4.07;;;2.67;;
5702;SDS011;2876;51.738;10.050;2024-02-14T14:59:42;3.00;;;2.17;;
5702;SDS011;2876;51.738;10.050;2024-02-14T15:05:44;5.40;;;2.70;;
5702;SDS011;2876;51.738;10.050;2024-02-14T15:11:48;6.23;;;2.90;;
5702;SDS011;2876;51.738;10.050;2024-02-14T15:17:50;6.00;;;2.70;;
5702;SDS011;2876;51.738;10.050;2024-02-14T15:23:52;4.23;;;2.23;;
5702;SDS011;2876;51.738;10.050;2024-02-14T15:29:55;5.77;;;2.20;;
5702;SDS011;2876;51.738;10.050;2024-02-14T15:36:15;4.20;;;1.90;;
5702;SDS011;2876;51.738;10.050;2024-02-14T15:42:17;3.80;;;1.97;;
5702;SDS011;2876;51.738;10.050;2024-02-14T15:48:19;2.50;;;1.60;;
5702;SDS011;2876;51.738;10.050;2024-02-14T15:54:22;2.47;;;2.27;;
5702;SDS011;2876;51.738;10.050;2024-02-14T16:00:24;2.50;;;1.93;;
5702;SDS011;2876;51.738;10.050;2024-02-14T16:06:31;2.13;;;1.73;;
5702;SDS011;2876;51.738;10.050;2024-02-14T16:12:36;3.83;;;2.50;;
5702;SDS011;2876;51.738;10.050;2024-02-14T16:18:38;5.20;;;2.83;;
5702;SDS011;2876;51.738;10.050;2024-02-14T16:24:40;6.50;;;1.70;;
5702;SDS011;2876;51.738;10.050;2024-02-14T16:30:44;5.23;;;1.80;;
5702;SDS011;2876;51.738;10.050;2024-02-14T16:36:46;8.37;;;2.10;;
5702;SDS011;2876;51.738;10.050;2024-02-14T16:42:48;2.60;;;2.23;;
5702;SDS011;2876;51.738;10.050;2024-02-14T16:48:51;2.37;;;1.70;;
5702;SDS011;2876;51.738;10.050;2024-02-14T16:54:54;5.07;;;3.53;;
5702;SDS011;2876;51.738;10.050;2024-02-14T17:00:56;8.30;;;3.30;;
5702;SDS011;2876;51.738;10.050;2024-02-14T17:06:58;5.73;;;2.50;;
5702;SDS011;2876;51.738;10.050;2024-02-14T17:13:00;3.10;;;2.13;;
5702;SDS011;2876;51.738;10.050;2024-02-14T17:19:04;4.00;;;1.70;;
5702;SDS011;2876;51.738;10.050;2024-02-14T17:25:08;5.13;;;2.13;;
5702;SDS011;2876;51.738;10.050;2024-02-14T17:31:11;5.67;;;1.90;;
5702;SDS011;2876;51.738;10.050;2024-02-14T17:37:15;4.53;;;1.43;;
5702;SDS011;2876;51.738;10.050;2024-02-14T17:43:18;15.50;;;4.93;;
5702;SDS011;2876;51.738;10.050;2024-02-14T17:49:20;7.50;;;3.27;;
5702;SDS011;2876;51.738;10.050;2024-02-14T17:55:22;11.17;;;6.00;;
5702;SDS011;2876;51.738;10.050;2024-02-14T18:01:24;5.40;;;2.37;;
5702;SDS011;2876;51.738;10.050;2024-02-14T18:07:27;2.77;;;1.80;;
5702;SDS011;2876;51.738;10.050;2024-02-14T18:13:29;5.53;;;2.00;;
5702;SDS011;2876;51.738;10.050;2024-02-14T18:19:31;2.80;;;2.00;;
5702;SDS011;2876;51.738;10.050;2024-02-14T18:25:33;5.00;;;2.07;;
5702;SDS011;2876;51.738;10.050;2024-02-14T18:31:35;1.77;;;1.67;;
5702;SDS011;2876;51.738;10.050;2024-02-14T18:37:37;3.67;;;2.47;;
5702;SDS011;2876;51.738;10.050;2024-02-14T18:43:40;4.07;;;3.20;;
5702;SDS011;2876;51.738;10.050;2024-02-14T18:49:42;3.07;;;2.43;;
5702;SDS011;2876;51.738;10.050;2024-02-14T18:55:46;3.43;;;2.70;;
5702;SDS011;2876;51.738;10.050;2024-02-14T19:01:49;2.73;;;2.43;;
5702;SDS011;2876;51.738;10.050;2024-02-14T19:07:51;3.90;;;2.30;;
5702;SDS011;2876;51.738;10.050;2024-02-14T19:13:53;4.70;;;2.23;;
5702;SDS011;2876;51.738;10.050;2024-02-14T19:19:55;2.30;;;2.10;;
5702;SDS011;2876;51.738;10.050;2024-02-14T19:25:58;6.50;;;3.30;;
5702;SDS011;2876;51.738;10.050;2024-02-14T19:32:00;5.37;;;2.43;;
5702;SDS011;2876;51.738;10.050;2024-02-14T19:38:02;3.37;;;3.00;;
5702;SDS011;2876;51.738;10.050;2024-02-14T19:44:04;3.67;;;3.20;;
5702;SDS011;2876;51.738;10.050;2024-02-14T19:50:06;2.90;;;2.60;;
5702;SDS011;2876;51.738;10.050;2024-02-14T19:56:10;2.67;;;2.47;;
5702;SDS011;2876;51.738;10.050;2024-02-14T20:02:12;2.90;;;2.60;;
5702;SDS011;2876;51.738;10.050;2024-02-14T20:08:14;2.87;;;2.60;;
5702;SDS011;2876;51.738;10.050;2024-02-14T20:14:19;4.90;;;3.77;;
5702;SDS011;2876;51.738;10.050;2024-02-14T20:20:22;5.37;;;4.40;;
5702;SDS011;2876;51.738;10.050;2024-02-14T20:26:31;12.10;;;7.60;;
5702;SDS011;2876;51.738;10.050;2024-02-14T20:32:35;3.77;;;3.20;;
5702;SDS011;2876;51.738;10.050;2024-02-14T20:38:41;7.97;;;4.80;;
5702;SDS011;2876;51.738;10.050;2024-02-14T20:44:43;4.60;;;4.20;;
5702;SDS011;2876;51.738;10.050;2024-02-14T20:50:45;4.53;;;4.03;;
5702;SDS011;2876;51.738;10.050;2024-02-14T20:56:47;5.00;;;4.40;;
5702;SDS011;2876;51.738;10.050;2024-02-14T21:02:49;5.10;;;4.60;;
5702;SDS011;2876;51.738;10.050;2024-02-14T21:08:51;5.13;;;4.30;;
5702;SDS011;2876;51.738;10.050;2024-02-14T21:14:53;6.07;;;5.50;;
5702;SDS011;2876;51.738;10.050;2024-02-14T21:20:55;8.03;;;3.90;;
5702;SDS011;2876;51.738;10.050;2024-02-14T21:26:58;4.77;;;4.23;;
5702;SDS011;2876;51.738;10.050;2024-02-14T21:33:00;3.80;;;3.50;;
5702;SDS011;2876;51.738;10.050;2024-02-14T21:39:02;4.73;;;4.17;;
5702;SDS011;2876;51.738;10.050;2024-02-14T21:45:05;5.40;;;4.43;;
5702;SDS011;2876;51.738;10.050;2024-02-14T21:51:08;4.40;;;4.00;;
5702;SDS011;2876;51.738;10.050;2024-02-14T21:57:11;4.40;;;3.60;;
5702;SDS011;2876;51.738;10.050;2024-02-14T22:03:13;4.43;;;4.03;;
5702;SDS011;2876;51.738;10.050;2024-02-14T22:09:15;4.40;;;4.00;;
5702;SDS011;2876;51.738;10.050;2024-02-14T22:15:18;5.37;;;3.50;;
5702;SDS011;2876;51.738;10.050;2024-02-14T22:21:21;4.47;;;3.40;;
5702;SDS011;2876;51.738;10.050;2024-02-14T22:27:23;4.33;;;3.57;;
5702;SDS011;2876;51.738;10.050;2024-02-14T22:33:25;4.40;;;3.70;;
5702;SDS011;2876;51.738;10.050;2024-02-14T22:39:27;5.73;;;4.90;;
5702;SDS011;2876;51.738;10.050;2024-02-14T22:45:30;4.90;;;4.30;;
5702;SDS011;2876;51.738;10.050;2024-02-14T22:51:33;4.53;;;4.13;;
5702;SDS011;2876;51.738;10.050;2024-02-14T22:57:35;6.93;;;4.50;;
5702;SDS011;2876;51.738;10.050;2024-02-14T23:03:37;8.90;;;4.93;;
5702;SDS011;2876;51.738;10.050;2024-02-14T23:09:40;5.93;;;5.37;;
5702;SDS011;2876;51.738;10.050;2024-02-14T23:15:43;4.87;;;4.40;;
5702;SDS011;2876;51.738;10.050;2024-02-14T23:21:46;7.27;;;5.70;;
5702;SDS011;2876;51.738;10.050;2024-02-14T23:27:47;5.87;;;4.50;;
5702;SDS011;2876;51.738;10.050;2024-02-14T23:33:50;5.87;;;5.00;;
5702;SDS011;2876;51.738;10.050;2024-02-14T23:39:52;6.73;;;4.37;;
5702;SDS011;2876;51.738;10.050;2024-02-14T23:45:54;5.03;;;4.53;;
5702;SDS011;2876;51.738;10.050;2024-02-14T23:51:56;5.13;;;4.63;;
5702;SDS011;2876;51.738;10.050;2024-02-14T23:57:58;5.40;;;4.90;;
